Time;durP1;ratioP1;P1;durP2;ratioP2;P2;SDS_P1;SDS_P2;PMS_P1;PMS_P2;Temp;Humidity;BMP_temperature;BMP_pressure;BME280_temperature;BME280_humidity;BME280_pressure;Samples;Min_cycle;Max_cycle;Signal;HPM_P1;HPM_P2
2021/04/17 00:02:19;;;;;;;0.70;0.60;;;6.40;94.10;;;6.94;100.00;-20871.19;5092391;28;20411;-67
2021/04/17 00:04:47;;;;;;;0.70;0.63;;;6.40;94.70;;;6.96;100.00;-20871.75;5091062;28;20191;-67
2021/04/17 00:07:16;;;;;;;0.70;0.67;;;6.40;94.50;;;6.89;100.00;-20869.66;5088088;28;20435;-69
2021/04/17 00:09:45;;;;;;;0.70;0.60;;;6.30;95.50;;;6.77;100.00;-20866.59;5086558;28;20439;-67
2021/04/17 00:12:15;;;;;;;0.70;0.60;;;6.30;95.90;;;6.74;100.00;-20865.78;5093316;28;20622;-67
2021/04/17 00:14:44;;;;;;;0.70;0.60;;;6.20;96.40;;;6.71;100.00;-20864.94;5093117;28;20447;-68
2021/04/17 00:17:14;;;;;;;0.70;0.60;;;6.10;96.40;;;6.80;100.00;-20867.16;5091411;28;20550;-67
2021/04/17 00:19:43;;;;;;;0.87;0.80;;;6.20;95.90;;;6.75;100.00;-20865.91;5091484;28;20180;-67
2021/04/17 00:22:10;;;;;;;0.80;0.70;;;6.20;96.10;;;6.70;100.00;-20864.50;5093328;28;20989;-67
2021/04/17 00:24:37;;;;;;;0.70;0.60;;;6.10;97.00;;;6.68;100.00;-20864.09;5092720;28;20184;-68
2021/04/17 00:27:06;;;;;;;0.70;0.50;;;6.20;96.80;;;6.69;100.00;-20864.38;5092389;28;20965;-67
2021/04/17 00:29:35;;;;;;;0.70;0.60;;;6.20;97.40;;;6.62;100.00;-20862.44;5108586;28;20434;-67
2021/04/17 00:32:06;;;;;;;0.70;0.60;;;6.20;97.00;;;6.45;100.00;-20857.84;5092009;28;20511;-67
2021/04/17 00:34:33;;;;;;;0.70;0.60;;;6.00;97.20;;;6.28;100.00;-20853.25;5082154;28;20441;-67
2021/04/17 00:37:00;;;;;;;0.70;0.60;;;5.90;98.20;;;6.14;100.00;-20849.38;5073693;28;20199;-66
2021/04/17 00:39:27;;;;;;;0.70;0.60;;;5.70;99.10;;;5.97;100.00;-20844.63;5085719;28;20818;-66
2021/04/17 00:41:54;;;;;;;0.70;0.60;;;5.60;99.90;;;5.96;100.00;-20844.34;5074942;28;20211;-69
2021/04/17 00:44:22;;;;;;;0.70;0.60;;;5.50;99.90;;;5.85;100.00;-20841.44;5072830;28;20189;-68
2021/04/17 00:46:49;;;;;;;0.70;0.60;;;5.50;99.90;;;5.85;100.00;-20841.28;5088453;28;20180;-67
2021/04/17 00:49:17;;;;;;;0.70;0.60;;;5.40;99.90;;;5.80;100.00;-20840.03;5087195;28;20242;-67
2021/04/17 00:51:44;;;;;;;0.70;0.60;;;5.50;99.90;;;5.72;100.00;-20837.81;5081201;28;20224;-68
2021/04/17 00:54:12;;;;;;;0.70;0.60;;;5.40;99.90;;;5.55;100.00;-20833.22;5076163;28;20224;-66
2021/04/17 00:56:39;;;;;;;0.70;0.70;;;5.20;99.90;;;5.52;100.00;-20832.38;5076439;28;20216;-68
2021/04/17 00:59:06;;;;;;;0.88;0.88;;;5.10;99.90;;;5.51;100.00;-20832.25;5076712;28;20189;-69
2021/04/17 01:01:34;;;;;;;0.70;0.50;;;5.10;99.90;;;5.45;100.00;-20830.44;5076222;28;20173;-69
2021/04/17 01:04:10;;;;;;;0.70;0.60;;;5.20;99.90;;;5.32;100.00;-20826.97;5078677;28;20195;-69
2021/04/17 01:06:47;;;;;;;0.70;0.60;;;5.00;99.90;;;5.21;100.00;-20823.91;5096745;28;20169;-69
2021/04/17 01:09:24;;;;;;;0.80;0.70;;;4.90;99.90;;;5.06;100.00;-20819.88;5074937;28;20192;-70
2021/04/17 01:11:59;;;;;;;1.33;1.13;;;4.70;99.90;;;5.01;100.00;-20818.47;5093703;28;20319;-70
2021/04/17 01:14:29;;;;;;;0.70;0.60;;;4.70;99.90;;;4.88;100.00;-20814.84;5095368;28;20268;-70
2021/04/17 01:17:00;;;;;;;0.70;0.60;;;4.60;99.90;;;4.78;100.00;-20812.22;5094418;28;20195;-70
2021/04/17 01:19:48;;;;;;;1.23;1.13;;;4.40;99.90;;;4.75;100.00;-20811.50;5077366;28;20261;-70
2021/04/17 01:22:20;;;;;;;0.70;0.60;;;4.40;99.90;;;4.76;100.00;-20811.78;5094229;28;20598;-69
2021/04/17 01:24:57;;;;;;;0.70;0.60;;;4.40;99.90;;;4.72;100.00;-20810.53;5094919;28;20176;-69
2021/04/17 01:27:25;;;;;;;0.80;0.70;;;4.40;99.90;;;4.64;100.00;-20808.31;5096579;28;20204;-69
2021/04/17 01:29:53;;;;;;;0.70;0.60;;;4.30;99.90;;;4.50;100.00;-20804.69;5093118;28;20609;-69
2021/04/17 01:32:21;;;;;;;0.80;0.60;;;4.20;99.90;;;4.49;100.00;-20804.25;5074549;28;20207;-69
2021/04/17 01:34:50;;;;;;;0.70;0.60;;;4.20;99.90;;;4.59;100.00;-20807.06;5077199;28;20185;-69
2021/04/17 01:37:20;;;;;;;0.80;0.70;;;4.30;99.90;;;4.76;100.00;-20811.78;5091960;28;20203;-70
2021/04/17 01:39:47;;;;;;;0.70;0.60;;;4.40;99.90;;;4.83;100.00;-20813.75;5086065;28;20192;-70
2021/04/17 01:42:17;;;;;;;0.70;0.70;;;4.50;99.90;;;4.82;100.00;-20813.47;5080180;28;20217;-69
2021/04/17 01:44:47;;;;;;;0.70;0.60;;;4.50;99.90;;;4.90;100.00;-20815.41;5090946;28;20196;-69
2021/04/17 01:47:15;;;;;;;0.70;0.60;;;4.60;99.90;;;4.88;100.00;-20814.84;5093755;28;20177;-68
2021/04/17 01:49:48;;;;;;;0.70;0.60;;;4.60;99.90;;;4.92;100.00;-20816.09;5087151;28;20655;-69
2021/04/17 01:52:20;;;;;;;0.70;0.60;;;4.60;99.90;;;4.89;100.00;-20815.13;5075975;28;20205;-70
2021/04/17 01:54:55;;;;;;;0.70;0.70;;;4.60;99.90;;;4.77;100.00;-20811.94;5075525;28;20180;-69
2021/04/17 01:57:25;;;;;;;0.70;0.60;;;4.50;99.90;;;4.66;100.00;-20809.00;5057567;28;20214;-69
2021/04/17 01:59:54;;;;;;;0.70;0.60;;;4.40;99.90;;;4.55;100.00;-20805.94;5079002;28;20184;-69
2021/04/17 02:02:21;;;;;;;0.70;0.60;;;4.30;99.90;;;4.39;100.00;-20801.63;5095806;28;20620;-69
2021/04/17 02:04:48;;;;;;;0.80;0.70;;;4.20;99.90;;;4.28;100.00;-20798.56;5079809;28;20177;-70
2021/04/17 02:07:15;;;;;;;0.70;0.60;;;4.00;99.90;;;4.16;100.00;-20795.22;5095567;28;20180;-69
2021/04/17 02:09:43;;;;;;;0.70;0.60;;;3.80;99.90;;;4.14;100.00;-20794.78;5093202;28;20187;-69
2021/04/17 02:12:11;;;;;;;0.70;0.60;;;3.90;99.90;;;4.04;100.00;-20792.16;5094366;28;20212;-69
2021/04/17 02:14:37;;;;;;;0.70;0.60;;;3.80;99.90;;;3.84;100.00;-20786.72;5093932;28;20191;-68
2021/04/17 02:17:15;;;;;;;0.70;0.65;;;3.60;99.90;;;3.63;100.00;-20781.00;5080242;28;20238;-69
2021/04/17 02:19:54;;;;;;;0.70;0.60;;;3.40;99.90;;;3.49;100.00;-20777.09;5084694;28;20211;-69
2021/04/17 02:22:23;;;;;;;0.73;0.70;;;3.20;99.90;;;3.51;100.00;-20777.66;5095335;28;20168;-69
2021/04/17 02:24:52;;;;;;;0.70;0.60;;;3.20;99.90;;;3.39;100.00;-20774.44;5078661;28;20342;-69
2021/04/17 02:27:19;;;;;;;0.70;0.60;;;3.20;99.90;;;3.36;100.00;-20773.47;5074712;28;20208;-68
2021/04/17 02:29:51;;;;;;;0.73;0.68;;;3.10;99.90;;;3.45;100.00;-20775.84;5074821;28;20645;-69
2021/04/17 02:32:19;;;;;;;0.75;0.65;;;3.20;99.90;;;3.33;100.00;-20772.75;5073538;28;20205;-69
2021/04/17 02:34:46;;;;;;;0.80;0.70;;;3.10;99.90;;;3.24;100.00;-20770.25;5092386;28;20193;-70
2021/04/17 02:37:13;;;;;;;0.70;0.60;;;3.00;99.90;;;3.17;100.00;-20768.16;5094691;28;20242;-70
2021/04/17 02:39:41;;;;;;;0.80;0.70;;;2.90;99.90;;;3.50;100.00;-20777.22;5072794;28;20197;-69
2021/04/17 02:42:09;;;;;;;0.70;0.60;;;3.30;99.90;;;3.42;100.00;-20775.00;5074716;28;20212;-71
2021/04/17 02:44:37;;;;;;;0.80;0.70;;;3.20;99.90;;;3.46;100.00;-20776.09;5073066;28;20267;-69
2021/04/17 02:47:05;;;;;;;0.70;0.65;;;3.10;99.90;;;3.39;100.00;-20774.44;5081834;28;20184;-69
2021/04/17 02:49:33;;;;;;;0.70;0.60;;;3.10;99.90;;;3.26;100.00;-20770.66;5093984;28;20567;-69
2021/04/17 02:52:00;;;;;;;0.70;0.60;;;3.00;99.90;;;3.20;100.00;-20769.00;5094705;28;20188;-69
2021/04/17 02:54:27;;;;;;;0.70;0.60;;;2.90;99.90;;;3.02;100.00;-20764.13;5093181;28;20192;-69
2021/04/17 02:56:54;;;;;;;0.70;0.60;;;2.80;99.90;;;2.97;100.00;-20762.72;5110375;28;20691;-69
2021/04/17 02:59:21;;;;;;;0.70;0.70;;;2.70;99.90;;;2.93;100.00;-20761.59;5085049;28;20649;-69
2021/04/17 03:01:48;;;;;;;0.70;0.60;;;2.70;99.90;;;2.76;100.00;-20757.13;5094537;28;20188;-69
2021/04/17 03:04:15;;;;;;;0.70;0.60;;;2.60;99.90;;;2.78;100.00;-20757.69;5080358;28;20702;-69
2021/04/17 03:06:43;;;;;;;0.70;0.60;;;2.50;99.90;;;2.80;100.00;-20758.13;5056274;28;20258;-69
2021/04/17 03:09:10;;;;;;;0.70;0.60;;;2.40;99.90;;;2.66;100.00;-20754.34;5084010;28;20229;-69
2021/04/17 03:11:37;;;;;;;0.80;0.80;;;2.50;99.90;;;2.62;100.00;-20753.22;5093114;28;20211;-69
2021/04/17 03:14:04;;;;;;;0.70;0.70;;;2.30;99.90;;;2.53;100.00;-20750.72;5092959;28;20267;-69
2021/04/17 03:16:31;;;;;;;0.80;0.70;;;2.30;99.90;;;2.45;100.00;-20748.47;5072963;28;20177;-69
2021/04/17 03:18:59;;;;;;;0.70;0.65;;;2.30;99.90;;;2.39;100.00;-20747.09;5076875;28;20176;-69
2021/04/17 03:21:26;;;;;;;0.70;0.60;;;2.20;99.90;;;2.32;100.00;-20745.13;5093846;28;20180;-69
2021/04/17 03:23:54;;;;;;;0.70;0.60;;;2.10;99.90;;;2.27;100.00;-20743.72;5092916;28;20192;-70
2021/04/17 03:26:21;;;;;;;0.80;0.70;;;2.10;99.90;;;2.25;100.00;-20743.19;5094044;28;20668;-70
2021/04/17 03:28:48;;;;;;;0.80;0.60;;;2.10;99.90;;;2.31;100.00;-20744.72;5093582;28;20184;-69
2021/04/17 03:31:15;;;;;;;0.70;0.60;;;2.00;99.90;;;2.41;100.00;-20747.66;5109265;28;20207;-68
2021/04/17 03:33:42;;;;;;;1.08;0.98;;;2.10;99.90;;;2.35;100.00;-20745.97;5093177;28;20709;-69
2021/04/17 03:36:09;;;;;;;0.80;0.70;;;2.00;99.90;;;2.20;100.00;-20741.78;5094045;28;20172;-70
2021/04/17 03:38:36;;;;;;;0.73;0.65;;;2.00;99.90;;;2.14;100.00;-20740.09;5083914;28;20275;-70
2021/04/17 03:41:05;;;;;;;0.80;0.80;;;1.90;99.90;;;2.10;100.00;-20739.13;5071396;28;20753;-70
2021/04/17 03:43:32;;;;;;;0.75;0.70;;;2.00;99.90;;;2.05;100.00;-20737.59;5083190;28;20221;-70
2021/04/17 03:45:59;;;;;;;0.73;0.65;;;1.90;99.90;;;1.97;100.00;-20735.50;5073677;28;20230;-70
2021/04/17 03:48:26;;;;;;;0.70;0.60;;;1.80;99.90;;;1.87;100.00;-20732.84;5080519;28;20515;-70
2021/04/17 03:50:53;;;;;;;0.70;0.70;;;1.70;99.90;;;1.86;100.00;-20732.41;5092313;28;20188;-71
2021/04/17 03:53:20;;;;;;;0.80;0.70;;;1.60;99.90;;;1.89;100.00;-20733.41;5092064;28;20203;-70
2021/04/17 03:55:47;;;;;;;0.70;0.70;;;1.60;99.90;;;1.82;100.00;-20731.31;5092369;28;20193;-70
2021/04/17 03:58:15;;;;;;;0.70;0.60;;;1.60;99.90;;;1.64;100.00;-20726.56;5092307;28;20223;-70
2021/04/17 04:00:42;;;;;;;0.80;0.70;;;1.50;99.90;;;1.71;100.00;-20728.38;5093124;28;20177;-70
2021/04/17 04:03:09;;;;;;;0.73;0.63;;;1.60;99.90;;;1.63;100.00;-20726.13;5093410;28;20632;-70
2021/04/17 04:05:36;;;;;;;0.80;0.70;;;1.40;99.90;;;1.54;100.00;-20723.75;5091466;28;20232;-70
2021/04/17 04:08:04;;;;;;;0.80;0.70;;;1.40;99.90;;;1.55;100.00;-20724.03;5080465;28;20228;-70
2021/04/17 04:10:31;;;;;;;0.80;0.70;;;1.30;99.90;;;1.52;100.00;-20723.19;5073468;28;20184;-70
2021/04/17 04:12:58;;;;;;;0.77;0.70;;;1.40;99.90;;;1.48;100.00;-20721.94;5077554;28;20217;-70
2021/04/17 04:15:26;;;;;;;0.70;0.60;;;1.30;99.90;;;1.42;100.00;-20720.53;5072068;28;20226;-70
2021/04/17 04:17:53;;;;;;;0.80;0.77;;;1.20;99.90;;;1.40;100.00;-20719.84;5073249;28;20189;-69
2021/04/17 04:20:20;;;;;;;0.70;0.70;;;1.20;99.90;;;1.43;100.00;-20720.69;5068436;28;20189;-69
2021/04/17 04:22:47;;;;;;;0.80;0.70;;;1.30;99.90;;;1.45;100.00;-20721.25;5096783;28;20208;-70
2021/04/17 04:25:14;;;;;;;0.80;0.70;;;1.20;99.90;;;1.35;100.00;-20718.44;5097583;28;20539;-69
2021/04/17 04:27:41;;;;;;;0.80;0.80;;;1.20;99.90;;;1.36;100.00;-20718.88;5097482;28;20219;-69
2021/04/17 04:30:11;;;;;;;0.80;0.70;;;1.20;99.90;;;1.30;100.00;-20717.19;5097437;28;20230;-69
2021/04/17 04:32:39;;;;;;;0.70;0.68;;;1.20;99.90;;;1.40;100.00;-20720.00;5090195;28;20207;-70
2021/04/17 04:35:08;;;;;;;0.80;0.70;;;1.20;99.90;;;1.31;100.00;-20717.47;5076067;28;20192;-69
2021/04/17 04:37:35;;;;;;;0.80;0.80;;;1.10;99.90;;;1.39;100.00;-20719.56;5076557;28;20216;-69
2021/04/17 04:40:03;;;;;;;0.70;0.60;;;1.10;99.90;;;1.32;100.00;-20717.75;5076959;28;20302;-69
2021/04/17 04:42:30;;;;;;;0.70;0.70;;;1.00;99.90;;;1.23;100.00;-20715.09;5074997;28;20209;-69
2021/04/17 04:44:57;;;;;;;0.70;0.60;;;1.10;99.90;;;1.19;100.00;-20714.13;5075813;28;20215;-69
2021/04/17 04:47:24;;;;;;;0.80;0.73;;;1.10;99.90;;;1.17;100.00;-20713.56;5075935;28;20181;-69
2021/04/17 04:49:52;;;;;;;0.80;0.77;;;1.00;99.90;;;1.20;100.00;-20714.41;5077984;28;20193;-69
2021/04/17 04:52:20;;;;;;;0.80;0.70;;;1.00;99.90;;;1.14;100.00;-20712.72;5089449;28;20208;-70
2021/04/17 04:54:47;;;;;;;0.80;0.70;;;0.90;99.90;;;1.13;100.00;-20712.44;5095467;28;20241;-69
2021/04/17 04:57:14;;;;;;;0.70;0.60;;;1.00;99.90;;;1.12;100.00;-20712.16;5096731;28;20617;-70
2021/04/17 04:59:41;;;;;;;0.80;0.70;;;1.00;99.90;;;1.10;100.00;-20711.59;5094005;28;20192;-69
2021/04/17 05:02:08;;;;;;;0.70;0.70;;;0.90;99.90;;;1.14;100.00;-20712.84;5092366;28;20716;-69
2021/04/17 05:04:35;;;;;;;0.80;0.70;;;0.90;99.90;;;1.11;100.00;-20711.88;5112216;28;20215;-70
2021/04/17 05:07:04;;;;;;;0.80;0.70;;;1.00;99.90;;;1.12;100.00;-20712.16;5096744;28;20283;-70
2021/04/17 05:09:31;;;;;;;0.70;0.60;;;0.90;99.90;;;1.13;100.00;-20712.44;5076782;28;20588;-70
2021/04/17 05:11:57;;;;;;;0.80;0.70;;;0.90;99.90;;;1.13;100.00;-20712.56;5076225;28;20221;-70
2021/04/17 05:14:24;;;;;;;0.80;0.80;;;0.90;99.90;;;1.13;100.00;-20712.44;5082445;28;20195;-71
2021/04/17 05:16:51;;;;;;;0.70;0.60;;;0.90;99.90;;;1.12;100.00;-20712.16;5094092;28;20272;-70
2021/04/17 05:19:18;;;;;;;0.70;0.70;;;0.90;99.90;;;1.14;100.00;-20712.84;5094182;28;20207;-70
2021/04/17 05:21:45;;;;;;;0.70;0.70;;;0.90;99.90;;;1.24;100.00;-20715.50;5083384;28;20271;-70
2021/04/17 05:24:13;;;;;;;0.80;0.70;;;0.90;99.90;;;1.24;100.00;-20715.50;5081134;28;20212;-70
2021/04/17 05:26:40;;;;;;;0.80;0.80;;;1.00;99.90;;;1.28;100.00;-20716.63;5066129;28;20921;-70
2021/04/17 05:29:07;;;;;;;0.80;0.70;;;1.00;99.90;;;1.43;100.00;-20720.81;5084829;28;20216;-70
2021/04/17 05:31:35;;;;;;;1.02;0.93;;;1.10;99.90;;;1.60;100.00;-20725.28;5089433;28;20262;-70
2021/04/17 05:34:05;;;;;;;0.70;0.60;;;1.30;99.90;;;1.76;100.00;-20729.75;5059722;28;20224;-69
2021/04/17 05:36:32;;;;;;;0.70;0.60;;;1.40;99.90;;;1.88;100.00;-20732.97;5057901;28;20280;-69
2021/04/17 05:38:59;;;;;;;0.73;0.70;;;1.50;99.90;;;2.04;100.00;-20737.31;5081288;28;20216;-69
2021/04/17 05:41:28;;;;;;;0.70;0.63;;;1.70;99.90;;;2.26;100.00;-20743.47;5075452;28;20177;-71
2021/04/17 05:43:55;;;;;;;1.10;1.00;;;1.90;99.90;;;2.40;100.00;-20747.38;5062955;28;20718;-70
2021/04/17 05:46:22;;;;;;;0.70;0.60;;;2.10;99.90;;;2.52;100.00;-20750.44;5076591;28;20192;-70
2021/04/17 05:48:49;;;;;;;0.70;0.60;;;2.20;99.90;;;2.75;100.00;-20756.84;5074623;28;20648;-70
2021/04/17 05:51:16;;;;;;;0.80;0.70;;;2.40;99.90;;;2.87;100.00;-20760.06;5084567;28;20208;-70
2021/04/17 05:53:44;;;;;;;0.80;0.70;;;2.50;99.90;;;2.93;100.00;-20761.75;5082613;28;20220;-69
2021/04/17 05:56:11;;;;;;;0.80;0.70;;;2.60;99.90;;;3.11;100.00;-20766.75;5083034;28;20206;-70
2021/04/17 05:58:39;;;;;;;0.70;0.68;;;2.70;99.90;;;3.23;100.00;-20769.97;5094027;28;20208;-70
2021/04/17 06:01:06;;;;;;;0.70;0.60;;;2.80;99.90;;;3.35;100.00;-20773.31;5089528;28;20192;-70
2021/04/17 06:03:33;;;;;;;0.80;0.60;;;3.00;99.90;;;3.47;100.00;-20776.41;5081519;28;20252;-70
2021/04/17 06:06:00;;;;;;;0.70;0.60;;;3.10;99.90;;;3.53;100.00;-20778.06;5093828;28;20176;-69
2021/04/17 06:08:27;;;;;;;0.70;0.68;;;3.20;99.90;;;3.55;100.00;-20778.63;5082375;28;20193;-69
2021/04/17 06:10:54;;;;;;;0.70;0.65;;;3.20;99.90;;;3.74;100.00;-20783.78;5083002;28;20196;-69
2021/04/17 06:13:21;;;;;;;0.80;0.70;;;3.30;99.90;;;3.97;100.00;-20790.06;5093433;28;20216;-70
2021/04/17 06:15:49;;;;;;;0.80;0.63;;;3.50;99.90;;;4.18;100.00;-20795.91;5075309;28;20633;-69
2021/04/17 06:18:16;;;;;;;0.70;0.60;;;3.70;99.90;;;4.36;100.00;-20800.78;5073581;28;20224;-70
2021/04/17 06:20:43;;;;;;;0.70;0.60;;;3.90;99.90;;;4.55;100.00;-20805.94;5077479;28;20641;-70
2021/04/17 06:23:11;;;;;;;0.70;0.70;;;4.00;99.90;;;4.94;100.00;-20816.66;5081597;28;20222;-69
2021/04/17 06:25:37;;;;;;;0.70;0.60;;;4.30;99.90;;;5.46;100.00;-20830.72;5074955;28;20212;-69
2021/04/17 06:28:05;;;;;;;0.70;0.60;;;4.70;99.90;;;5.84;100.00;-20841.00;5089122;28;20306;-69
2021/04/17 06:30:32;;;;;;;0.70;0.60;;;5.00;99.90;;;6.14;100.00;-20849.38;5074446;28;20191;-70
2021/04/17 06:33:00;;;;;;;1.88;1.17;;;5.40;99.90;;;6.41;100.00;-20856.59;5083606;28;20200;-69
2021/04/17 06:35:30;;;;;;;0.70;0.60;;;5.50;99.90;;;6.75;100.00;-20866.03;5084061;28;20196;-71
2021/04/17 06:37:57;;;;;;;0.70;0.60;;;5.90;99.90;;;6.81;100.00;-20867.56;5092724;28;20200;-70
2021/04/17 06:40:24;;;;;;;0.70;0.60;;;5.90;99.90;;;7.01;100.00;-20873.00;5095242;28;20257;-71
2021/04/17 06:42:54;;;;;;;0.70;0.60;;;6.00;99.90;;;7.08;100.00;-20874.94;5077983;28;20237;-69
2021/04/17 06:45:23;;;;;;;0.70;0.60;;;6.10;99.90;;;7.44;100.00;-20884.66;5083416;28;20178;-69
2021/04/17 06:47:50;;;;;;;0.70;0.60;;;6.40;99.90;;;7.52;100.00;-20886.75;5079483;28;21025;-70
2021/04/17 06:50:19;;;;;;;0.70;0.60;;;6.60;99.90;;;7.62;100.00;-20889.66;5071690;28;20518;-69
2021/04/17 06:52:49;;;;;;;0.70;0.50;;;6.80;99.90;;;8.20;100.00;-20905.34;5074365;28;20458;-69
2021/04/17 06:55:16;;;;;;;0.80;0.60;;;7.10;98.60;;;8.46;100.00;-20912.41;5073920;28;20431;-69
2021/04/17 06:57:44;;;;;;;0.70;0.57;;;7.40;99.90;;;8.62;100.00;-20916.84;5079637;28;21059;-69
2021/04/17 07:00:13;;;;;;;0.80;0.60;;;7.70;99.00;;;9.39;100.00;-20937.66;5093258;28;20949;-70
2021/04/17 07:02:41;;;;;;;0.77;0.70;;;7.90;94.00;;;10.05;100.00;-20955.66;5093151;28;20476;-69
2021/04/17 07:05:09;;;;;;;0.70;0.60;;;8.10;91.30;;;10.63;100.00;-20971.28;5079235;28;20457;-71
2021/04/17 07:07:37;;;;;;;0.70;0.60;;;8.40;87.30;;;10.17;100.00;-20958.81;5085341;28;20489;-69
2021/04/17 07:10:06;;;;;;;0.80;0.67;;;8.80;90.30;;;10.42;100.00;-20965.47;5074567;28;20498;-69
2021/04/17 07:12:33;;;;;;;0.70;0.57;;;9.10;82.70;;;11.08;100.00;-20983.59;5073782;28;20467;-69
2021/04/17 07:15:05;;;;;;;0.70;0.63;;;9.10;80.00;;;11.48;100.00;-20994.22;5084706;28;20432;-69
2021/04/17 07:17:37;;;;;;;1.27;1.17;;;9.10;78.80;;;11.45;100.00;-20993.41;5073779;28;20530;-70
2021/04/17 07:20:07;;;;;;;0.90;0.90;;;9.30;75.40;;;11.72;100.00;-21000.72;5073812;28;20532;-70
2021/04/17 07:22:37;;;;;;;0.77;0.63;;;9.70;75.90;;;12.44;100.00;-21020.34;5076663;28;20433;-70
2021/04/17 07:25:22;;;;;;;0.70;0.60;;;9.60;68.40;;;13.00;100.00;-21035.38;5082117;28;20461;-71
2021/04/17 07:27:51;;;;;;;0.70;0.70;;;9.60;68.80;;;12.00;100.00;-21008.47;5074067;28;20966;-71
2021/04/17 07:30:31;;;;;;;1.43;1.10;;;9.90;67.00;;;12.04;100.00;-21009.44;5072690;28;20432;-69
2021/04/17 07:33:11;;;;;;;0.70;0.70;;;10.20;66.90;;;13.42;100.00;-21046.69;5064355;28;20468;-71
2021/04/17 07:35:42;;;;;;;0.70;0.60;;;10.30;61.70;;;12.90;100.00;-21032.75;5089606;28;20482;-69
2021/04/17 07:38:17;;;;;;;0.70;0.60;;;10.70;62.00;;;13.31;100.00;-21043.66;5089181;28;20417;-69
2021/04/17 07:40:46;;;;;;;0.80;0.80;;;11.10;60.80;;;14.12;100.00;-21065.56;5084460;28;20492;-69
2021/04/17 07:43:17;;;;;;;0.77;0.67;;;10.90;53.80;;;13.69;100.00;-21054.00;5086865;28;20455;-69
2021/04/17 07:45:45;;;;;;;0.80;0.70;;;11.10;53.00;;;13.93;100.00;-21060.59;5081067;28;20450;-71
2021/04/17 07:48:25;;;;;;;1.23;1.13;;;11.30;52.30;;;14.99;100.00;-21089.09;5078180;28;20878;-71
2021/04/17 07:50:55;;;;;;;0.80;0.63;;;11.20;47.80;;;14.24;100.00;-21069.00;5082094;28;20440;-70
2021/04/17 07:53:29;;;;;;;1.10;1.00;;;11.40;49.20;;;14.29;100.00;-21070.09;5087927;28;20557;-71
2021/04/17 07:56:17;;;;;;;0.80;0.70;;;11.90;46.60;;;14.85;100.00;-21085.25;5071965;28;20491;-71
2021/04/17 07:58:49;;;;;;;0.80;0.60;;;12.00;43.00;;;15.28;100.00;-21096.94;5084234;28;20445;-71
2021/04/17 08:01:17;;;;;;;0.80;0.60;;;12.10;40.80;;;16.74;100.00;-21136.25;5077314;28;20428;-72
2021/04/17 08:03:47;;;;;;;0.70;0.60;;;11.90;38.90;;;16.25;100.00;-21123.06;5077542;28;21008;-72
2021/04/17 08:06:15;;;;;;;0.80;0.70;;;12.20;36.50;;;17.33;98.56;-21152.16;5079602;28;20525;-71
2021/04/17 08:08:43;;;;;;;0.70;0.60;;;12.00;32.80;;;16.31;99.50;-21124.69;5076900;28;20831;-70
2021/04/17 08:11:12;;;;;;;0.80;0.70;;;12.50;34.50;;;15.72;100.00;-21108.75;5073368;28;20454;-69
2021/04/17 08:13:42;;;;;;;0.80;0.63;;;12.80;32.60;;;15.01;100.00;-21089.50;5078732;28;20466;-71
2021/04/17 08:16:10;;;;;;;0.80;0.60;;;12.70;31.10;;;16.19;99.15;-21121.53;5076201;28;20746;-71
2021/04/17 08:18:39;;;;;;;0.77;0.67;;;12.90;27.80;;;16.13;97.99;-21119.91;5073005;28;20415;-71
2021/04/17 08:21:08;;;;;;;0.70;0.60;;;13.30;26.40;;;17.49;93.79;-21156.41;5080821;28;20413;-71
2021/04/17 08:23:36;;;;;;;0.70;0.60;;;13.70;21.20;;;16.89;90.46;-21140.22;5091471;28;20482;-71
2021/04/17 08:26:04;;;;;;;0.80;0.70;;;13.30;19.60;;;17.53;92.15;-21157.38;5091551;28;20452;-72
2021/04/17 08:28:40;;;;;;;0.70;0.60;;;13.30;20.60;;;17.38;91.81;-21153.53;5090750;28;20806;-71
2021/04/17 08:31:31;;;;;;;0.80;0.80;;;13.30;21.10;;;18.05;86.69;-21171.34;5091658;28;20438;-71
2021/04/17 08:34:11;;;;;;;1.37;1.27;;;13.20;17.80;;;17.82;89.86;-21165.31;5072631;28;20463;-71
2021/04/17 08:36:42;;;;;;;0.70;0.50;;;13.90;18.80;;;17.88;88.48;-21166.81;5072525;28;20766;-71
2021/04/17 08:39:45;;;;;;;0.70;0.60;;;13.90;19.40;;;17.73;87.08;-21162.72;5072167;28;20431;-72
2021/04/17 08:42:17;;;;;;;0.80;0.70;;;13.60;16.70;;;17.84;88.24;-21165.88;5064794;28;20467;-71
2021/04/17 08:44:46;;;;;;;0.80;0.60;;;13.90;18.00;;;17.95;87.08;-21168.59;5072867;28;20472;-71
2021/04/17 08:47:52;;;;;;;0.80;0.70;;;13.70;15.90;;;17.67;89.81;-21161.06;5075152;28;20755;-71
2021/04/17 08:50:27;;;;;;;0.80;0.70;;;14.00;18.80;;;18.12;89.30;-21173.25;5073144;28;20495;-71
2021/04/17 08:53:02;;;;;;;1.00;0.90;;;14.50;17.10;;;18.07;88.21;-21171.88;5078601;28;20508;-71
2021/04/17 08:55:48;;;;;;;0.70;0.60;;;14.20;16.40;;;18.15;85.86;-21173.94;5080011;28;20423;-72
2021/04/17 08:58:17;;;;;;;0.80;0.60;;;13.60;14.80;;;16.35;89.92;-21125.66;5077927;28;21120;-71
2021/04/17 09:01:08;;;;;;;0.70;0.50;;;13.90;17.10;;;16.36;92.08;-21126.06;5082092;28;20460;-71
2021/04/17 09:03:40;;;;;;;0.80;0.70;;;14.20;19.00;;;18.29;89.19;-21177.78;5075533;28;20393;-72
2021/04/17 09:06:30;;;;;;;1.57;1.47;;;14.30;16.90;;;18.33;88.29;-21178.88;5077638;28;20458;-72
2021/04/17 09:09:32;;;;;;;0.70;0.60;;;14.10;17.50;;;19.00;87.00;-21196.81;5081989;28;20418;-73
2021/04/17 09:12:18;;;;;;;1.10;0.70;;;15.10;14.90;;;19.54;84.40;-21211.31;5088488;28;20461;-72
2021/04/17 09:15:01;;;;;;;0.70;0.70;;;13.80;14.30;;;17.37;88.15;-21153.25;5093815;28;20694;-71
2021/04/17 09:17:44;;;;;;;0.80;0.70;;;14.20;15.20;;;17.76;86.81;-21163.66;5078205;28;20442;-72
2021/04/17 09:20:30;;;;;;;1.13;1.00;;;13.90;15.10;;;17.63;86.56;-21160.09;5091160;28;20505;-72
2021/04/17 09:22:57;;;;;;;0.80;0.70;;;14.40;15.40;;;17.08;86.61;-21145.28;5077893;28;20454;-71
2021/04/17 09:25:53;;;;;;;0.70;0.60;;;14.30;13.90;;;16.85;90.36;-21139.25;5089888;28;20438;-71
2021/04/17 09:28:21;;;;;;;1.10;1.00;;;15.10;15.30;;;16.93;87.77;-21141.19;5041175;28;20562;-72
2021/04/17 09:30:50;;;;;;;0.70;0.60;;;15.10;12.10;;;17.93;90.57;-21168.19;5095308;28;20441;-71
2021/04/17 09:33:18;;;;;;;0.70;0.60;;;15.80;16.50;;;18.71;90.42;-21189.00;5082127;28;20483;-70
2021/04/17 09:35:46;;;;;;;0.80;0.70;;;16.30;15.00;;;20.83;82.71;-21245.75;5075764;28;20532;-73
2021/04/17 09:38:18;;;;;;;0.80;0.70;;;14.80;11.70;;;18.71;83.91;-21189.16;5074383;28;20439;-70
2021/04/17 09:40:50;;;;;;;0.70;0.60;;;14.80;14.00;;;18.53;86.54;-21184.22;5076443;28;20466;-70
2021/04/17 09:43:27;;;;;;;0.80;0.70;;;15.30;14.20;;;18.26;86.71;-21177.09;5087295;28;20679;-71
2021/04/17 09:45:57;;;;;;;0.80;0.60;;;14.80;14.10;;;18.24;84.14;-21176.56;5067302;28;20533;-70
2021/04/17 09:48:25;;;;;;;0.80;0.60;;;13.90;12.40;;;16.41;85.03;-21127.44;5077872;28;20425;-70
2021/04/17 09:50:56;;;;;;;0.80;0.60;;;13.50;13.80;;;15.55;89.35;-21104.09;5091646;28;20508;-70
2021/04/17 09:53:29;;;;;;;0.70;0.60;;;13.40;14.10;;;16.85;89.17;-21139.25;5076304;28;20998;-71
2021/04/17 09:56:00;;;;;;;0.80;0.60;;;13.50;15.10;;;17.49;88.18;-21156.25;5085842;28;20390;-71
2021/04/17 09:58:33;;;;;;;1.10;1.00;;;13.70;15.30;;;18.00;86.90;-21169.97;5079836;28;20848;-71
2021/04/17 10:01:07;;;;;;;0.80;0.60;;;14.90;14.60;;;19.01;86.42;-21197.09;5095428;28;20821;-71
2021/04/17 10:03:38;;;;;;;0.80;0.60;;;15.50;12.80;;;18.56;84.33;-21185.19;5082607;28;20436;-71
2021/04/17 10:06:24;;;;;;;0.80;0.67;;;15.30;11.00;;;17.59;85.29;-21159.00;5062965;28;20443;-72
2021/04/17 10:08:53;;;;;;;0.70;0.60;;;14.40;10.60;;;17.39;85.10;-21153.78;5084771;28;20410;-71
2021/04/17 10:11:24;;;;;;;0.80;0.70;;;13.70;12.60;;;17.11;84.19;-21146.13;5075798;28;20439;-69
2021/04/17 10:13:53;;;;;;;0.70;0.60;;;13.80;12.50;;;17.17;84.83;-21147.63;5096392;28;20437;-71
2021/04/17 10:16:28;;;;;;;0.77;0.67;;;13.90;11.80;;;16.33;84.30;-21125.13;5075666;28;20435;-71
2021/04/17 10:18:55;;;;;;;0.80;0.70;;;14.00;10.40;;;16.34;85.32;-21125.38;5072619;28;20939;-70
2021/04/17 10:21:25;;;;;;;0.70;0.60;;;14.10;9.50;;;15.63;84.77;-21106.28;5082023;28;20489;-69
2021/04/17 10:24:16;;;;;;;0.70;0.60;;;14.10;8.00;;;16.60;84.96;-21132.38;5074685;28;20406;-70
2021/04/17 10:27:01;;;;;;;0.80;0.70;;;14.70;8.80;;;17.14;84.16;-21146.94;5074264;28;20997;-70
2021/04/17 10:29:44;;;;;;;0.80;0.70;;;15.60;8.00;;;18.71;83.24;-21189.16;5078452;28;20427;-70
2021/04/17 10:32:15;;;;;;;0.70;0.60;;;16.40;7.20;;;17.68;82.47;-21161.47;5079821;28;20409;-70